Grafton, Wisconsin
Current Conditions -  °F | °C
As of 10:10 PM on Sunday 25 Jan 2015 (Local Time) from KETB Reporting Station
Overcast Overcast  
Wind Chill: 18°   Ceiling: 11000
Heat Index: 18°   Visibility: 10mi
Dew Point: 10°   Wind: 3mph
Humidity: 73%   Direction: 360°N
Pressure: 30.02"   Gusts: NA
Location:  43.32°N, 87.94°W
Report Text: KETB 260410Z AUTO 36003KT 10SM OVC110 M08/M12 A3002 RMK AO2
Loading
Personal Weather Stations






























Interactive Weather Map New forecast layout! Learn more

10-Day Weather Forecast

Advertisements
Track Severe Weather on mobile